Aviation Digital Data Service (ADDS)

Output produced by METARs form (1537 UTC 23 January 2019)
found at http://www.aviationweather.gov/metar/data/
 
METAR text: VAAU 231500Z 00000KT 4000 HZ NSC 21/11 Q1016 NOSIG
Conditions at: VAAU (AURANGABAD AIRPO, IN) observed 1500 UTC 23 January 2019
Temperature: 21.0°C (70°F)
Dewpoint: 11.0°C (52°F) [RH = 53%]
Pressure (altimeter): 30.00 inches Hg (1016.0 mb)
Winds: calm
Visibility: 2.49 miles (4.01 km)
Ceiling: at least 12,000 feet AGL
Clouds: sky clear below 12,000 feet AGL
Weather: HZ  (haze)

METAR text: VAAU 231400Z 27002KT 4000 HZ NSC 23/09 Q1015 NOSIG
Conditions at: VAAU (AURANGABAD AIRPO, IN) observed 1400 UTC 23 January 2019
Temperature: 23.0°C (73°F)
Dewpoint: 9.0°C (48°F) [RH = 41%]
Pressure (altimeter): 29.97 inches Hg (1015.0 mb)
Winds: from the W (270 degrees) at 2 MPH (2 knots; 1.0 m/s)
Visibility: 2.49 miles (4.01 km)
Ceiling: at least 12,000 feet AGL
Clouds: sky clear below 12,000 feet AGL
Weather: HZ  (haze)

METAR text: VAAU 231300Z 25005KT 5000 HZ NSC 25/09 Q1015 NOSIG
Conditions at: VAAU (AURANGABAD AIRPO, IN) observed 1300 UTC 23 January 2019
Temperature: 25.0°C (77°F)
Dewpoint: 9.0°C (48°F) [RH = 36%]
Pressure (altimeter): 29.97 inches Hg (1015.0 mb)
Winds: from the WSW (250 degrees) at 6 MPH (5 knots; 2.6 m/s)
Visibility: 3 miles ( 5 km)
Ceiling: at least 12,000 feet AGL
Clouds: sky clear below 12,000 feet AGL
Weather: HZ  (haze)

METAR text: VAAU 231200Z 27003KT 6000 NSC 27/09 Q1014 NOSIG
Conditions at: VAAU (AURANGABAD AIRPO, IN) observed 1200 UTC 23 January 2019
Temperature: 27.0°C (81°F)
Dewpoint: 9.0°C (48°F) [RH = 32%]
Pressure (altimeter): 29.94 inches Hg (1014.0 mb)
Winds: from the W (270 degrees) at 3 MPH (3 knots; 1.5 m/s)
Visibility: 4 miles ( 6 km)
Ceiling: at least 12,000 feet AGL
Clouds: sky clear below 12,000 feet AGL
Weather: no significant weather observed at this time

METAR text: VAAU 230900Z 25004KT 6000 FEW020 27/09 Q1015 NOSIG
Conditions at: VAAU (AURANGABAD AIRPO, IN) observed 0900 UTC 23 January 2019
Temperature: 27.0°C (81°F)
Dewpoint: 9.0°C (48°F) [RH = 32%]
Pressure (altimeter): 29.97 inches Hg (1015.0 mb)
Winds: from the WSW (250 degrees) at 5 MPH (4 knots; 2.1 m/s)
Visibility: 4 miles ( 6 km)
Ceiling: at least 12,000 feet AGL
Clouds: few clouds at 2000 feet AGL
Weather: no significant weather observed at this time

METAR text: VAAU 230800Z 25005KT 4000 HZ FEW020 26/10 Q1015 NOSIG
Conditions at: VAAU (AURANGABAD AIRPO, IN) observed 0800 UTC 23 January 2019
Temperature: 26.0°C (79°F)
Dewpoint: 10.0°C (50°F) [RH = 37%]
Pressure (altimeter): 29.97 inches Hg (1015.0 mb)
Winds: from the WSW (250 degrees) at 6 MPH (5 knots; 2.6 m/s)
Visibility: 2.49 miles (4.01 km)
Ceiling: at least 12,000 feet AGL
Clouds: few clouds at 2000 feet AGL
Weather: HZ  (haze)

METAR text: VAAU 230700Z 32003KT 4000 HZ FEW020 25/10 Q1016 NOSIG
Conditions at: VAAU (AURANGABAD AIRPO, IN) observed 0700 UTC 23 January 2019
Temperature: 25.0°C (77°F)
Dewpoint: 10.0°C (50°F) [RH = 39%]
Pressure (altimeter): 30.00 inches Hg (1016.0 mb)
Winds: from the NW (320 degrees) at 3 MPH (3 knots; 1.5 m/s)
Visibility: 2.49 miles (4.01 km)
Ceiling: at least 12,000 feet AGL
Clouds: few clouds at 2000 feet AGL
Weather: HZ  (haze)

METAR text: VAAU 230600Z 27003KT 4000 HZ SCT020 25/13 Q1017 NOSIG
Conditions at: VAAU (AURANGABAD AIRPO, IN) observed 0600 UTC 23 January 2019
Temperature: 25.0°C (77°F)
Dewpoint: 13.0°C (55°F) [RH = 47%]
Pressure (altimeter): 30.03 inches Hg (1017.0 mb)
Winds: from the W (270 degrees) at 3 MPH (3 knots; 1.5 m/s)
Visibility: 2.49 miles (4.01 km)
Ceiling: at least 12,000 feet AGL
Clouds: scattered clouds at 2000 feet AGL
Weather: HZ  (haze)

METAR text: VAAU 230500Z 00000KT 2500 HZ NSC 24/12 Q1018 NOSIG
Conditions at: VAAU (AURANGABAD AIRPO, IN) observed 0500 UTC 23 January 2019
Temperature: 24.0°C (75°F)
Dewpoint: 12.0°C (54°F) [RH = 47%]
Pressure (altimeter): 30.06 inches Hg (1018.0 mb)
Winds: calm
Visibility: 1.55 miles (2.49 km)
Ceiling: at least 12,000 feet AGL
Clouds: sky clear below 12,000 feet AGL
Weather: HZ  (haze)

METAR text: VAAU 230400Z 00000 2000 HZ NSC 20/11 Q10018 NOSIG
Conditions at: VAAU (AURANGABAD AIRPO, IN) observed 0400 UTC 23 January 2019
Temperature: 20.0°C (68°F)
Dewpoint: 11.0°C (52°F) [RH = 56%]
Pressure (altimeter): missing
Winds: calm
Visibility: 1.24 miles (2.00 km)
Ceiling: at least 12,000 feet AGL
Clouds: sky clear below 12,000 feet AGL
Weather: HZ  (haze)

METAR text: VAAU 230300Z 00000 2000 HZ NSC 167/11 Q1017 NOSIG
Conditions at: VAAU (AURANGABAD AIRPO, IN) observed 0300 UTC 23 January 2019
Temperature: 0.0°C (32°F)
Dewpoint: 11.0°C (52°F) [RH = 215%]
Pressure (altimeter): 30.03 inches Hg (1017.0 mb)
Winds: calm
Visibility: 1.24 miles (2.00 km)
Ceiling: at least 12,000 feet AGL
Clouds: sky clear below 12,000 feet AGL
Weather: HZ  (haze)

METAR text: VAAU 230200 00000 2000 HZ NSC 13/11 Q1017 NOSIG
Conditions at: VAAU (AURANGABAD AIRPO, IN) observed 0200 UTC 23 January 2019
Temperature: 13.0°C (55°F)
Dewpoint: 11.0°C (52°F) [RH = 88%]
Pressure (altimeter): 30.03 inches Hg (1017.0 mb)
Winds: calm
Visibility: 1.24 miles (2.00 km)
Ceiling: at least 12,000 feet AGL
Clouds: sky clear below 12,000 feet AGL
Weather: HZ  (haze)

METAR text: VAAU 230100Z 00000 2000 HZ NSC 15/11 Q1016 NOSIG
Conditions at: VAAU (AURANGABAD AIRPO, IN) observed 0100 UTC 23 January 2019
Temperature: 15.0°C (59°F)
Dewpoint: 11.0°C (52°F) [RH = 77%]
Pressure (altimeter): 30.00 inches Hg (1016.0 mb)
Winds: calm
Visibility: 1.24 miles (2.00 km)
Ceiling: at least 12,000 feet AGL
Clouds: sky clear below 12,000 feet AGL
Weather: HZ  (haze)

METAR text: VAAU 230000Z 00000 2000 HZ NSC 15/11 1015 NOSIG
Conditions at: VAAU (AURANGABAD AIRPO, IN) observed 0000 UTC 23 January 2019
Temperature: 15.0°C (59°F)
Dewpoint: 11.0°C (52°F) [RH = 77%]
Pressure (altimeter): missing
Winds: calm
Visibility: 1.24 miles (2.00 km)
Ceiling: at least 12,000 feet AGL
Clouds: sky clear below 12,000 feet AGL
Weather: HZ  (haze)

METAR text: VAAU 222100Z 00000 3000 HZ NSC 18/13 Q1014 NOSIG
Conditions at: VAAU (AURANGABAD AIRPO, IN) observed 2100 UTC 22 January 2019
Temperature: 18.0°C (64°F)
Dewpoint: 13.0°C (55°F) [RH = 73%]
Pressure (altimeter): 29.94 inches Hg (1014.0 mb)
Winds: calm
Visibility: 1.86 miles (2.99 km)
Ceiling: at least 12,000 feet AGL
Clouds: sky clear below 12,000 feet AGL
Weather: HZ  (haze)

METAR text: VAAU 221800Z 00000KT 3000 HZ NSC 19/13 Q1016 NOSIG
Conditions at: VAAU (AURANGABAD AIRPO, IN) observed 1800 UTC 22 January 2019
Temperature: 19.0°C (66°F)
Dewpoint: 13.0°C (55°F) [RH = 68%]
Pressure (altimeter): 30.00 inches Hg (1016.0 mb)
Winds: calm
Visibility: 1.86 miles (2.99 km)
Ceiling: at least 12,000 feet AGL
Clouds: sky clear below 12,000 feet AGL
Weather: HZ  (haze)

METAR text: VAAU 221500Z 00000KT 3000 HZ NSC 23/12 Q1015 NOSIG
Conditions at: VAAU (AURANGABAD AIRPO, IN) observed 1500 UTC 22 January 2019
Temperature: 23.0°C (73°F)
Dewpoint: 12.0°C (54°F) [RH = 50%]
Pressure (altimeter): 29.97 inches Hg (1015.0 mb)
Winds: calm
Visibility: 1.86 miles (2.99 km)
Ceiling: at least 12,000 feet AGL
Clouds: sky clear below 12,000 feet AGL
Weather: HZ  (haze)

METAR text: VAAU 221400Z 00000KT 3000 HZ NSC 24/13 Q1014 NOSIG
Conditions at: VAAU (AURANGABAD AIRPO, IN) observed 1400 UTC 22 January 2019
Temperature: 24.0°C (75°F)
Dewpoint: 13.0°C (55°F) [RH = 50%]
Pressure (altimeter): 29.94 inches Hg (1014.0 mb)
Winds: calm
Visibility: 1.86 miles (2.99 km)
Ceiling: at least 12,000 feet AGL
Clouds: sky clear below 12,000 feet AGL
Weather: HZ  (haze)

METAR text: VAAU 221300Z 00000KT 4000 HZ NSC 25/11 Q1014 NOSIG
Conditions at: VAAU (AURANGABAD AIRPO, IN) observed 1300 UTC 22 January 2019
Temperature: 25.0°C (77°F)
Dewpoint: 11.0°C (52°F) [RH = 41%]
Pressure (altimeter): 29.94 inches Hg (1014.0 mb)
Winds: calm
Visibility: 2.49 miles (4.01 km)
Ceiling: at least 12,000 feet AGL
Clouds: sky clear below 12,000 feet AGL
Weather: HZ  (haze)

METAR text: VAAU 221200Z 25006 5000 HZ NSC 27/10 Q1014 NOSIG
Conditions at: VAAU (AURANGABAD AIRPO, IN) observed 1200 UTC 22 January 2019
Temperature: 27.0°C (81°F)
Dewpoint: 10.0°C (50°F) [RH = 34%]
Pressure (altimeter): 29.94 inches Hg (1014.0 mb)
Winds: from the WSW (250 degrees) at 7 MPH (6 knots; 3.1 m/s)
Visibility: 3 miles ( 5 km)
Ceiling: at least 12,000 feet AGL
Clouds: sky clear below 12,000 feet AGL
Weather: HZ  (haze)

METAR text: VAAU 221000Z 25006 5000 HZ NSC 28/10Q1014 NOSIG
Conditions at: VAAU (AURANGABAD AIRPO, IN) observed 1000 UTC 22 January 2019
Temperature: missing
Dewpoint: missing
Pressure (altimeter): 29.94 inches Hg (1014.0 mb)
Winds: from the WSW (250 degrees) at 7 MPH (6 knots; 3.1 m/s)
Visibility: 3 miles ( 5 km)
Ceiling: at least 12,000 feet AGL
Clouds: sky clear below 12,000 feet AGL
Weather: HZ  (haze)

METAR text: VAAU 220900Z 25008 5000 HZ NSC 28/10 Q1014 NOSIG
Conditions at: VAAU (AURANGABAD AIRPO, IN) observed 0900 UTC 22 January 2019
Temperature: 28.0°C (82°F)
Dewpoint: 10.0°C (50°F) [RH = 32%]
Pressure (altimeter): 29.94 inches Hg (1014.0 mb)
Winds: from the WSW (250 degrees) at 9 MPH (8 knots; 4.1 m/s)
Visibility: 3 miles ( 5 km)
Ceiling: at least 12,000 feet AGL
Clouds: sky clear below 12,000 feet AGL
Weather: HZ  (haze)

METAR text: VAAU 220800Z 24007KT 5000 HZ NSC 27/11 Q1015 NOSIG
Conditions at: VAAU (AURANGABAD AIRPO, IN) observed 0800 UTC 22 January 2019
Temperature: 27.0°C (81°F)
Dewpoint: 11.0°C (52°F) [RH = 37%]
Pressure (altimeter): 29.97 inches Hg (1015.0 mb)
Winds: from the WSW (240 degrees) at 8 MPH (7 knots; 3.6 m/s)
Visibility: 3 miles ( 5 km)
Ceiling: at least 12,000 feet AGL
Clouds: sky clear below 12,000 feet AGL
Weather: HZ  (haze)

METAR text: VAAU 220700Z 22006KT 5000 HZ NSC 26/11 Q1016 NOSIG
Conditions at: VAAU (AURANGABAD AIRPO, IN) observed 0700 UTC 22 January 2019
Temperature: 26.0°C (79°F)
Dewpoint: 11.0°C (52°F) [RH = 39%]
Pressure (altimeter): 30.00 inches Hg (1016.0 mb)
Winds: from the SW (220 degrees) at 7 MPH (6 knots; 3.1 m/s)
Visibility: 3 miles ( 5 km)
Ceiling: at least 12,000 feet AGL
Clouds: sky clear below 12,000 feet AGL
Weather: HZ  (haze)

METAR text: VAAU 220600Z 16002KT 5000 HZ NSC 25/11 Q1017 NOSIG
Conditions at: VAAU (AURANGABAD AIRPO, IN) observed 0600 UTC 22 January 2019
Temperature: 25.0°C (77°F)
Dewpoint: 11.0°C (52°F) [RH = 41%]
Pressure (altimeter): 30.03 inches Hg (1017.0 mb)
Winds: from the SSE (160 degrees) at 2 MPH (2 knots; 1.0 m/s)
Visibility: 3 miles ( 5 km)
Ceiling: at least 12,000 feet AGL
Clouds: sky clear below 12,000 feet AGL
Weather: HZ  (haze)

METAR text: VAAU 220500Z 24003KT 4000 HZ NSC 22/11 Q1017 NOSIG
Conditions at: VAAU (AURANGABAD AIRPO, IN) observed 0500 UTC 22 January 2019
Temperature: 22.0°C (72°F)
Dewpoint: 11.0°C (52°F) [RH = 50%]
Pressure (altimeter): 30.03 inches Hg (1017.0 mb)
Winds: from the WSW (240 degrees) at 3 MPH (3 knots; 1.5 m/s)
Visibility: 2.49 miles (4.01 km)
Ceiling: at least 12,000 feet AGL
Clouds: sky clear below 12,000 feet AGL
Weather: HZ  (haze)

METAR text: VAAU 220400Z 24004KT 4000 HZ NSC 21.10 Q1017 NOSIG
Conditions at: VAAU (AURANGABAD AIRPO, IN) observed 0400 UTC 22 January 2019
Temperature: missing
Dewpoint: missing
Pressure (altimeter): 30.03 inches Hg (1017.0 mb)
Winds: from the WSW (240 degrees) at 5 MPH (4 knots; 2.1 m/s)
Visibility: 2.49 miles (4.01 km)
Ceiling: at least 12,000 feet AGL
Clouds: sky clear below 12,000 feet AGL
Weather: HZ  (haze)

Forecast for: VAAU (AURANGABAD AIRPO, IN)
Text: TAF VAAU 231100Z 2312/2321 25005KT 5000 HZ FEW020
Forecast period: 1200 to 1300 UTC 23 January 2019
Forecast type: FROM: standard forecast or significant change
Winds: from the WSW (250 degrees) at 6 MPH (5 knots; 2.6 m/s)
Visibility: 3 miles (5 km)
Ceiling: at least 12,000 feet AGL
Clouds: few clouds at 2000 feet AGL
Weather: HZ  (haze)
Text: BECMG 2313/2315 00000KT 3000 HZ
Forecast period: 1300 to 2100 UTC 23 January 2019
Forecast type: BECOMING: Conditions expected to become as follows by 1500 UTC 23 January 2019
Winds: calm
Visibility: 1.86 miles (2.99 km)
Ceiling: at least 12,000 feet AGL
Clouds: few clouds at 2000 feet AGL
Weather: HZ  (haze)